Messina, Italy

6:34 PM CET on February 28, 2015 (GMT +0100)
Messina centro | Change Station
CLOSE
Current Station
Personal Weather Station
Location: Messina, SICILIA
Elevation: 72 ft
Nearby Weather Stations
Active Advisory: Thunderstorms

Elev 72 ft 38.18 °N, 15.56 °E | Updated 3 minutes ago

Mostly Cloudy
Mostly Cloudy
55.9 °F
Feels Like 55.9 °F
N
0.0
Wind Variable Wind from SW
Gusts 0.0 mph

Today
High -- | Low -- °F
--% Chance of Precip.
Yesterday
High -- | Low -- °F
Precip. -- in
6:31 AM 5:49 PM
Waxing Gibbous, 79% visible
Pressure 30.01 in
Visibility 6.2 miles
Clouds Mostly Cloudy 5000 ft
Dew Point 46 °F
Humidity 70%
Rainfall 0.04 in
Snow Depth Not available.
UV 0 out of 12
Pollen Not available.
Air Quality Not available.
Flu Activity Not available.
METAR LICC 281720Z 03007KT 360V070 9999 BKN050 12/07 Q1016

More Conditions Fewer Conditions

Pressure 30.01 in
Visibility 6.2 miles
Clouds Mostly Cloudy 5000 ft
Dew Point 46 °F
Humidity 70%
Rainfall 0.04 in
Snow Depth Not available.
UV 0 out of 12
Pollen Not available.
Air Quality Not available.
Flu Activity Not available.
METAR LICC 281720Z 03007KT 360V070 9999 BKN050 12/07 Q1016

More Conditions Fewer Conditions

10-Day Weather Forecast

Almanac

Astronomy

Feb. 28, 2015 Rise Set
Actual Time
Civil Twilight
Nautical Twilight
Astronomical Twilight
Moon
Length of Visible Light
Length of Day
Tomorrow will be .
, % of the Moon is Illuminated

Today's Extremes

Country Highs Country Lows

Community

WunderPhotos

Upload Photos

1,801,101 photos uploaded!

WunderBlogs® & News

Nearby

Air Quality

  Air Quality AQ Index Pollutant
Not available.

Snow Depth

Station Depth Elevation

Earthquake Activity

City Distance Mag. Time & Date
Minimum magnitude displayed is 2.5.

Coastal Water Temperatures

Place Temperature

Nearby Weather Stations